Time;durP1;ratioP1;P1;durP2;ratioP2;P2;SDS_P1;SDS_P2;PMS_P1;PMS_P2;Temp;Humidity;BMP_temperature;BMP_pressure;BME280_temperature;BME280_humidity;BME280_pressure;Samples;Min_cycle;Max_cycle;Signal;HPM_P1;HPM_P2
2022/01/24 00:00:23;;;;;;;30.07;15.83;;;;;;;-5.70;100.00;100181.14;1707664;83;21556;-69
2022/01/24 00:02:51;;;;;;;26.47;14.83;;;;;;;-5.68;100.00;100184.56;1732456;83;21584;-70
2022/01/24 00:05:20;;;;;;;27.73;14.23;;;;;;;-5.68;100.00;100185.88;1708029;83;21068;-70
2022/01/24 00:07:47;;;;;;;27.93;14.30;;;;;;;-5.68;100.00;100180.61;1707924;83;21521;-70
2022/01/24 00:10:18;;;;;;;29.07;15.13;;;;;;;-5.66;100.00;100179.23;1732702;83;21008;-69
2022/01/24 00:18:25;;;;;;;29.57;14.23;;;;;;;-5.60;100.00;100175.86;1641685;87;21133;-70
2022/01/24 00:28:58;;;;;;;26.07;13.87;;;;;;;-5.56;100.00;100156.81;1579831;90;21057;-69
2022/01/24 00:31:25;;;;;;;28.80;14.57;;;;;;;-5.56;100.00;100148.91;1580184;91;21040;-68
2022/01/24 00:33:52;;;;;;;26.57;14.13;;;;;;;-5.57;100.00;100152.02;1579900;91;21076;-69
2022/01/24 00:36:19;;;;;;;28.70;14.07;;;;;;;-5.57;100.00;100138.00;1584106;88;21064;-69
2022/01/24 00:38:46;;;;;;;27.23;14.13;;;;;;;-5.57;100.00;100141.95;1632177;88;21101;-69
2022/01/24 00:41:18;;;;;;;28.60;14.57;;;;;;;-5.57;100.00;100136.68;1632162;88;21072;-70
2022/01/24 00:46:31;;;;;;;25.70;13.87;;;;;;;-5.58;100.00;100136.27;1671501;86;21052;-69
2022/01/24 00:57:04;;;;;;;31.40;15.80;;;;;;;-5.61;100.00;100125.42;1658267;86;21051;-69
2022/01/24 00:59:31;;;;;;;30.60;15.73;;;;;;;-5.61;100.00;100128.49;1659765;86;21055;-69
2022/01/24 01:01:58;;;;;;;33.10;17.00;;;;;;;-5.61;100.00;100124.10;1677134;86;21074;-70
2022/01/24 01:04:33;;;;;;;31.90;16.70;;;;;;;-5.60;100.00;100126.27;1677222;85;21484;-70
2022/01/24 01:06:55;;;;;;;35.40;18.03;;;;;;;-5.61;100.00;100136.39;1674955;86;21524;-70
2022/01/24 01:20:34;;;;;;;35.23;17.00;;;;;;;-5.64;100.00;100120.27;1632955;88;21176;-70
2022/01/24 01:22:57;;;;;;;27.57;14.27;;;;;;;-5.65;100.00;100122.97;1615630;88;21124;-69
2022/01/24 01:25:24;;;;;;;36.73;19.20;;;;;;;-5.63;100.00;100125.07;1633920;88;21554;-70
2022/01/24 01:27:53;;;;;;;25.17;14.00;;;;;;;-5.63;100.00;100122.44;1633567;88;21105;-68
2022/01/24 01:30:34;;;;;;;26.57;14.63;;;;;;;-5.64;100.00;100122.91;1633739;88;21156;-69
2022/01/24 01:33:03;;;;;;;24.93;12.60;;;;;;;-5.62;100.00;100115.79;1630507;88;21077;-70
2022/01/24 01:56:38;;;;;;;28.60;13.93;;;;;;;-5.57;100.00;100122.19;1662878;85;21075;-70
2022/01/24 01:59:05;;;;;;;25.90;13.17;;;;;;;-5.58;100.00;100133.64;1671999;85;21520;-70
2022/01/24 02:01:33;;;;;;;24.57;13.70;;;;;;;-5.57;100.00;100126.98;1692463;85;21087;-69
2022/01/24 02:04:02;;;;;;;27.37;13.47;;;;;;;-5.55;100.00;100128.24;1692779;85;21066;-69
2022/01/24 02:06:29;;;;;;;26.77;13.17;;;;;;;-5.54;100.00;100139.19;1694944;85;21114;-69
2022/01/24 02:09:05;;;;;;;26.80;13.37;;;;;;;-5.52;100.00;100143.92;1695276;84;21040;-70
2022/01/24 02:11:32;;;;;;;24.37;12.50;;;;;;;-5.50;100.00;100144.71;1695037;83;21071;-69
2022/01/24 02:14:04;;;;;;;26.87;13.63;;;;;;;-5.48;100.00;100131.47;1695164;83;20992;-69
2022/01/24 02:19:19;;;;;;;72.40;42.10;;;;;;;-5.45;100.00;100141.42;1614485;89;21080;-68
2022/01/24 02:21:46;;;;;;;47.43;28.50;;;;;;;-5.41;100.00;100134.23;1601691;89;21045;-69
2022/01/24 02:24:13;;;;;;;26.50;13.80;;;;;;;-5.41;100.00;100142.14;1599431;90;21077;-68
2022/01/24 02:26:40;;;;;;;26.77;13.80;;;;;;;-5.40;100.00;100148.67;1599688;89;21093;-69
2022/01/24 02:29:16;;;;;;;24.73;11.83;;;;;;;-5.39;100.00;100153.47;1599196;90;21163;-69
2022/01/24 02:31:41;;;;;;;25.87;12.47;;;;;;;-5.37;100.00;100156.41;1579728;90;21069;-69
2022/01/24 02:34:34;;;;;;;23.73;12.33;;;;;;;-5.36;100.00;100160.78;1599658;90;21144;-69
2022/01/24 02:37:07;;;;;;;24.83;11.80;;;;;;;-5.33;100.00;100159.77;1599545;90;21131;-69
2022/01/24 02:53:18;;;;;;;23.27;12.13;;;;;;;-5.42;100.00;100158.42;1599431;90;21057;-69
2022/01/24 02:55:45;;;;;;;25.77;12.27;;;;;;;-5.41;100.00;100150.89;1613396;85;21098;-69
2022/01/24 02:58:12;;;;;;;22.47;11.37;;;;;;;-5.42;100.00;100159.74;1612026;86;21019;-69
2022/01/24 03:00:40;;;;;;;22.60;11.83;;;;;;;-5.42;100.00;100160.18;1669476;86;21055;-68
2022/01/24 03:03:07;;;;;;;22.73;11.70;;;;;;;-5.42;100.00;100157.11;1669625;85;21103;-69
2022/01/24 03:05:34;;;;;;;24.93;12.47;;;;;;;-5.43;100.00;100155.85;1669652;86;21040;-69
2022/01/24 03:08:02;;;;;;;25.97;12.27;;;;;;;-5.44;100.00;100154.12;1650531;85;21071;-69
2022/01/24 03:10:38;;;;;;;22.73;12.10;;;;;;;-5.45;100.00;100155.91;1669323;86;21015;-69
2022/01/24 03:15:38;;;;;;;22.33;11.63;;;;;;;-5.45;100.00;100153.72;1669530;85;21051;-69
2022/01/24 03:18:06;;;;;;;23.27;11.50;;;;;;;-5.46;100.00;100161.25;1650210;86;21126;-69
2022/01/24 03:20:33;;;;;;;24.80;12.50;;;;;;;-5.48;100.00;100159.99;1648152;85;21143;-70
2022/01/24 03:23:02;;;;;;;22.83;11.40;;;;;;;-5.48;100.00;100167.90;1660386;86;21075;-69
2022/01/24 03:25:29;;;;;;;24.67;11.73;;;;;;;-5.49;100.00;100164.85;1669564;86;21127;-69
2022/01/24 03:27:56;;;;;;;21.60;11.20;;;;;;;-5.48;100.00;100165.27;1669600;85;21059;-70
2022/01/24 03:30:24;;;;;;;22.00;11.70;;;;;;;-5.48;100.00;100170.53;1669696;86;21532;-70
2022/01/24 03:32:51;;;;;;;23.57;12.13;;;;;;;-5.50;100.00;100173.70;1669522;86;21016;-68
2022/01/24 03:35:18;;;;;;;23.47;11.80;;;;;;;-5.47;100.00;100174.02;1669715;86;21543;-70
2022/01/24 03:37:46;;;;;;;24.27;11.57;;;;;;;-5.47;100.00;100171.38;1669741;86;21031;-69
2022/01/24 03:40:16;;;;;;;22.63;12.43;;;;;;;-5.48;100.00;100182.39;1620193;86;21059;-69
2022/01/24 03:42:44;;;;;;;24.07;13.10;;;;;;;-5.49;100.00;100176.71;1669604;86;21075;-71
2022/01/24 03:45:12;;;;;;;23.43;11.83;;;;;;;-5.48;100.00;100183.70;1669941;86;21055;-69
2022/01/24 03:47:56;;;;;;;25.17;11.27;;;;;;;-5.48;100.00;100188.13;1650480;86;21112;-70
2022/01/24 03:50:17;;;;;;;22.07;11.30;;;;;;;-5.50;100.00;100189.98;1645665;86;21067;-68
2022/01/24 03:52:46;;;;;;;;;;;;;;;-5.51;100.00;100181.19;1672105;85;21547;-69
2022/01/24 03:55:14;;;;;;;20.97;10.93;;;;;;;-5.52;100.00;100191.36;1670574;85;20150;-69
2022/01/24 03:57:43;;;;;;;21.07;10.77;;;;;;;-5.55;100.00;100195.44;1677007;86;21074;-68
2022/01/24 04:00:12;;;;;;;21.53;10.87;;;;;;;-5.56;100.00;100212.16;1676591;85;21586;-70
2022/01/24 04:02:42;;;;;;;23.27;11.27;;;;;;;-5.58;100.00;100203.02;1702818;84;21038;-69
2022/01/24 04:05:10;;;;;;;22.43;11.83;;;;;;;-5.57;100.00;100210.45;1688503;84;21073;-69
2022/01/24 04:07:38;;;;;;;22.53;11.40;;;;;;;-5.58;100.00;100209.61;1706186;84;21072;-69
2022/01/24 04:10:07;;;;;;;20.47;10.93;;;;;;;-5.57;100.00;100207.35;1688673;84;20994;-71
2022/01/24 04:12:39;;;;;;;22.03;11.00;;;;;;;-5.58;100.00;100215.31;1706526;84;21041;-69
2022/01/24 04:15:27;;;;;;;23.25;11.28;;;;;;;-5.58;100.00;100220.59;1688833;84;21018;-69
2022/01/24 04:17:45;;;;;;;21.43;10.87;;;;;;;-5.59;100.00;100221.52;1703776;84;21049;-69
2022/01/24 04:22:59;;;;;;;21.50;10.83;;;;;;;-5.59;100.00;100218.42;1688517;84;21530;-70
2022/01/24 04:25:25;;;;;;;22.57;10.97;;;;;;;-5.60;100.00;100227.70;1699034;84;21022;-69
2022/01/24 04:27:54;;;;;;;21.43;10.83;;;;;;;-5.63;100.00;100222.55;1679403;84;21041;-68
2022/01/24 04:30:22;;;;;;;23.97;11.53;;;;;;;-5.65;100.00;100224.40;1688589;84;21082;-69
2022/01/24 04:32:49;;;;;;;22.37;11.60;;;;;;;-5.67;100.00;100222.29;1706198;84;21057;-69
2022/01/24 04:35:17;;;;;;;23.00;11.83;;;;;;;-5.69;100.00;100222.35;1706443;84;21035;-70
2022/01/24 04:37:44;;;;;;;23.83;11.23;;;;;;;-5.69;100.00;100225.45;1688174;84;21056;-70
2022/01/24 04:40:11;;;;;;;21.67;11.07;;;;;;;-5.70;100.00;100221.09;1706351;84;21053;-70
2022/01/24 04:50:24;;;;;;;23.53;11.43;;;;;;;-5.78;100.00;100231.48;1689022;85;21071;-69
2022/01/24 04:50:39;;;;;;;20.60;10.93;;;;;;;-5.78;100.00;100239.39;1666121;85;21111;-69
2022/01/24 04:53:05;;;;;;;23.57;11.17;;;;;;;-5.77;100.00;100241.12;1685768;85;21059;-70
2022/01/24 04:55:23;;;;;;;22.03;11.23;;;;;;;-5.79;100.00;100248.23;1685912;85;21409;-70
2022/01/24 04:57:52;;;;;;;20.07;11.07;;;;;;;-5.78;100.00;100244.66;1666035;85;21054;-69
2022/01/24 05:00:19;;;;;;;21.77;11.27;;;;;;;-5.79;100.00;100247.35;1666080;85;21008;-70
2022/01/24 05:02:48;;;;;;;21.73;11.33;;;;;;;-5.82;100.00;100244.39;1689103;85;21512;-69
2022/01/24 05:05:19;;;;;;;20.80;10.63;;;;;;;-5.81;100.00;100239.50;1689071;85;21055;-70
2022/01/24 05:07:44;;;;;;;21.43;10.77;;;;;;;-5.82;100.00;100240.91;1685501;85;21087;-70
2022/01/24 05:10:24;;;;;;;22.00;11.03;;;;;;;-5.86;100.00;100241.94;1664298;85;21063;-69
2022/01/24 05:23:39;;;;;;;44.40;23.87;;;;;;;-5.93;100.00;100235.61;1688065;84;21110;-67
2022/01/24 05:26:07;;;;;;;66.30;27.00;;;;;;;-5.95;100.00;100236.14;1689163;85;21134;-69
2022/01/24 05:28:36;;;;;;;41.80;18.67;;;;;;;-5.93;100.00;100241.34;1689205;85;21051;-70
2022/01/24 05:31:04;;;;;;;34.73;17.57;;;;;;;-5.94;100.00;100238.30;1666154;85;21117;-70
2022/01/24 05:33:32;;;;;;;39.13;20.03;;;;;;;-5.93;100.00;100251.88;1689176;85;21094;-72
2022/01/24 05:35:59;;;;;;;37.63;18.90;;;;;;;-5.93;100.00;100251.88;1665857;85;21627;-71
2022/01/24 05:38:26;;;;;;;52.90;22.93;;;;;;;-5.91;100.00;100261.89;1665696;85;21095;-71
2022/01/24 05:40:53;;;;;;;65.43;26.00;;;;;;;-5.92;100.00;100260.16;1689964;84;21004;-73
2022/01/24 05:43:20;;;;;;;36.37;16.63;;;;;;;-5.93;100.00;100269.00;1699333;84;21030;-70
2022/01/24 05:45:47;;;;;;;23.23;13.07;;;;;;;-5.93;100.00;100269.84;1688576;84;21585;-71
2022/01/24 05:48:15;;;;;;;23.07;12.20;;;;;;;-5.94;100.00;100267.27;1706306;84;21073;-71
2022/01/24 05:50:43;;;;;;;21.13;11.33;;;;;;;-5.92;100.00;100268.06;1706142;84;21089;-70
2022/01/24 05:53:10;;;;;;;22.93;11.93;;;;;;;-5.91;100.00;100272.42;1688544;84;21085;-72
2022/01/24 05:55:38;;;;;;;23.17;11.57;;;;;;;-5.92;100.00;100278.13;1676140;85;21059;-71
2022/01/24 05:58:05;;;;;;;21.13;10.90;;;;;;;-5.90;100.00;100280.70;1669693;85;21047;-71
2022/01/24 06:00:33;;;;;;;24.47;11.97;;;;;;;-5.88;100.00;100281.49;1669574;84;21020;-71
2022/01/24 06:03:07;;;;;;;22.67;12.20;;;;;;;-5.86;100.00;100277.05;1669725;85;21071;-72
2022/01/24 06:05:35;;;;;;;26.90;16.33;;;;;;;-5.83;100.00;100283.48;1684200;84;21028;-71
2022/01/24 06:08:08;;;;;;;30.90;19.53;;;;;;;-5.81;100.00;100284.28;1701406;84;21020;-72
2022/01/24 06:10:37;;;;;;;44.87;28.13;;;;;;;-5.81;100.00;100283.44;1701541;84;21048;-71
2022/01/24 06:13:05;;;;;;;41.30;27.07;;;;;;;-5.79;100.00;100282.91;1673819;84;21045;-71
2022/01/24 06:15:34;;;;;;;25.27;15.37;;;;;;;-5.76;100.00;100284.95;1701440;83;21047;-71
2022/01/24 06:18:02;;;;;;;26.93;15.77;;;;;;;-5.73;100.00;100294.53;1673762;84;21583;-73
2022/01/24 06:20:29;;;;;;;27.67;16.07;;;;;;;-5.73;100.00;100284.84;1701284;84;21033;-71
2022/01/24 06:22:56;;;;;;;26.20;12.17;;;;;;;-5.75;100.00;100291.95;1701689;83;21028;-72
2022/01/24 06:25:25;;;;;;;20.57;11.07;;;;;;;-5.70;100.00;100291.78;1674498;84;21072;-71
2022/01/24 06:27:52;;;;;;;23.27;10.97;;;;;;;-5.67;100.00;100288.16;1673912;84;21052;-72
2022/01/24 06:30:19;;;;;;;21.90;11.70;;;;;;;-5.66;100.00;100288.56;1674163;84;21075;-70
2022/01/24 06:32:53;;;;;;;21.10;11.60;;;;;;;-5.63;100.00;100287.98;1701087;84;21033;-71
2022/01/24 06:35:20;;;;;;;36.67;19.67;;;;;;;-5.59;100.00;100276.86;1673625;84;20996;-70
2022/01/24 06:37:47;;;;;;;28.53;16.00;;;;;;;-5.60;100.00;100275.98;1673949;84;21131;-70
2022/01/24 06:40:15;;;;;;;27.90;16.67;;;;;;;-5.57;100.00;100277.17;1702129;83;21505;-68
2022/01/24 06:42:42;;;;;;;28.27;14.80;;;;;;;-5.55;100.00;100274.02;1695679;83;21033;-71
2022/01/24 06:45:10;;;;;;;33.93;17.07;;;;;;;-5.55;100.00;100272.69;1683637;84;21557;-69
2022/01/24 06:47:37;;;;;;;26.97;14.90;;;;;;;-5.51;100.00;100276.53;1684056;85;21565;-72
2022/01/24 06:50:06;;;;;;;30.23;16.40;;;;;;;-5.51;100.00;100277.37;1683753;84;21110;-71
2022/01/24 06:52:34;;;;;;;22.93;12.60;;;;;;;-5.50;100.00;100282.21;1679612;85;21053;-71
2022/01/24 06:55:01;;;;;;;24.27;13.43;;;;;;;-5.51;100.00;100271.26;1682723;85;21017;-70
2022/01/24 06:57:28;;;;;;;40.03;23.77;;;;;;;-5.53;100.00;100267.36;1636645;86;21490;-69
2022/01/24 06:59:57;;;;;;;23.47;12.53;;;;;;;-5.48;100.00;100266.72;1672625;84;21040;-70
2022/01/24 07:02:24;;;;;;;23.47;11.50;;;;;;;-5.44;100.00;100256.91;1672837;84;21073;-72
2022/01/24 07:04:51;;;;;;;21.43;11.33;;;;;;;-5.41;100.00;100276.55;1672689;85;21068;-69
2022/01/24 07:07:18;;;;;;;21.87;12.10;;;;;;;-5.41;100.00;100273.45;1646246;86;21088;-70
2022/01/24 07:09:47;;;;;;;26.13;13.07;;;;;;;-5.39;100.00;100274.23;1672473;86;21056;-71
2022/01/24 07:12:19;;;;;;;25.87;14.87;;;;;;;-5.38;100.00;100272.48;1672642;86;21013;-71
2022/01/24 07:14:46;;;;;;;25.90;14.70;;;;;;;-5.38;100.00;100285.66;1672879;86;21068;-72
2022/01/24 07:19:41;;;;;;;30.43;16.80;;;;;;;-5.31;100.00;100292.83;1663118;86;21049;-70
2022/01/24 07:22:08;;;;;;;33.97;19.37;;;;;;;-5.29;100.00;100294.93;1642232;87;21076;-70
2022/01/24 07:24:37;;;;;;;28.17;15.77;;;;;;;-5.29;100.00;100297.56;1616278;88;21068;-70
2022/01/24 07:27:05;;;;;;;27.03;16.60;;;;;;;-5.30;100.00;100294.55;1615345;88;21648;-71
2022/01/24 07:29:32;;;;;;;25.43;14.83;;;;;;;-5.28;100.00;100300.61;1637698;86;21092;-71
2022/01/24 07:31:59;;;;;;;35.57;21.90;;;;;;;-5.30;100.00;100303.31;1637778;86;21097;-72
2022/01/24 07:34:26;;;;;;;26.13;14.67;;;;;;;-5.29;100.00;100304.16;1637318;88;21048;-72
2022/01/24 07:36:55;;;;;;;25.37;13.63;;;;;;;-5.26;100.00;100308.88;1637258;88;21001;-72
2022/01/24 07:39:22;;;;;;;31.73;17.90;;;;;;;-5.22;100.00;100302.54;1615548;88;21089;-72
2022/01/24 07:41:51;;;;;;;24.83;14.23;;;;;;;-5.20;100.00;100304.64;1637810;88;21043;-72
2022/01/24 07:44:20;;;;;;;28.37;16.73;;;;;;;-5.16;100.00;100307.54;1637820;88;21032;-70
2022/01/24 07:46:52;;;;;;;29.90;16.87;;;;;;;-5.14;100.00;100306.16;1652770;85;21544;-70
2022/01/24 07:49:31;;;;;;;25.67;12.97;;;;;;;-5.12;100.00;100307.42;1660065;85;21127;-70
2022/01/24 07:52:00;;;;;;;25.80;14.07;;;;;;;-5.11;100.00;100311.31;1697790;84;21025;-68
2022/01/24 07:54:37;;;;;;;;;;;;;;;;;;;;;
2022/01/24 07:56:56;;;;;;;30.07;16.70;;;;;;;-5.08;100.00;100313.83;1634055;86;21123;-68
2022/01/24 07:59:23;;;;;;;60.80;35.57;;;;;;;-5.06;100.00;100309.81;1616630;87;21045;-69
2022/01/24 08:01:50;;;;;;;34.07;21.27;;;;;;;-5.02;100.00;100310.91;1634428;88;21072;-70
2022/01/24 08:04:18;;;;;;;48.40;29.50;;;;;;;-4.98;100.00;100310.32;1630364;87;21121;-69
2022/01/24 08:06:47;;;;;;;35.83;21.07;;;;;;;-4.94;100.00;100318.48;1619713;87;21079;-70
2022/01/24 08:09:14;;;;;;;69.97;37.47;;;;;;;-4.89;100.00;100316.52;1628080;88;21035;-70
2022/01/24 08:11:43;;;;;;;54.43;29.33;;;;;;;-4.83;100.00;100322.02;1624891;87;21043;-70
2022/01/24 08:14:11;;;;;;;43.03;25.73;;;;;;;-4.77;100.00;100312.50;1663407;85;21118;-71
2022/01/24 08:16:40;;;;;;;33.97;18.83;;;;;;;-4.72;100.00;100314.95;1629800;86;21048;-71
2022/01/24 08:19:08;;;;;;;42.20;21.97;;;;;;;-4.70;100.00;100300.75;1636210;87;21062;-70
2022/01/24 08:21:35;;;;;;;48.27;25.47;;;;;;;-4.67;100.00;100303.26;1638694;87;21060;-69
2022/01/24 08:24:05;;;;;;;30.90;15.63;;;;;;;-4.64;100.00;100307.53;1598652;87;21085;-72
2022/01/24 08:26:37;;;;;;;28.30;14.00;;;;;;;-4.60;100.00;100309.13;1627197;87;21634;-71
2022/01/24 08:29:05;;;;;;;44.07;22.17;;;;;;;-4.62;100.00;100306.99;1630027;87;21132;-71
2022/01/24 08:31:34;;;;;;;49.97;25.57;;;;;;;-4.61;100.00;100311.36;1606900;87;21000;-70
2022/01/24 08:34:03;;;;;;;47.47;26.80;;;;;;;-4.61;100.00;100308.72;1636056;87;21532;-70
2022/01/24 08:36:30;;;;;;;51.00;26.50;;;;;;;-4.58;100.00;100308.59;1636859;86;21119;-68
2022/01/24 08:39:04;;;;;;;32.13;16.07;;;;;;;-4.55;100.00;100310.22;1660543;86;21525;-71
2022/01/24 08:41:38;;;;;;;52.00;26.67;;;;;;;-4.54;100.00;100307.52;1642789;87;21600;-69
2022/01/24 08:44:11;;;;;;;68.53;33.20;;;;;;;-4.51;100.00;100314.47;1649646;85;20986;-69
2022/01/24 08:46:26;;;;;;;41.37;20.03;;;;;;;-4.48;100.00;100312.54;1635212;86;21112;-69
2022/01/24 08:48:54;;;;;;;78.03;37.77;;;;;;;-4.47;100.00;100305.47;1623658;86;21090;-70
2022/01/24 08:51:22;;;;;;;66.40;28.10;;;;;;;-4.43;100.00;100305.72;1634195;86;21017;-70
2022/01/24 08:53:49;;;;;;;42.00;22.17;;;;;;;-4.39;100.00;100308.16;1646384;87;21572;-69
2022/01/24 08:56:18;;;;;;;50.17;24.27;;;;;;;-4.37;100.00;100307.22;1639758;86;21017;-69
2022/01/24 08:58:45;;;;;;;57.73;29.60;;;;;;;-4.34;100.00;100309.25;1623470;87;21096;-70
2022/01/24 09:01:14;;;;;;;47.37;23.97;;;;;;;-4.27;100.00;100312.00;1676876;85;21013;-70
2022/01/24 09:03:44;;;;;;;50.53;25.87;;;;;;;-4.22;100.00;100314.45;1690926;85;21561;-70
2022/01/24 09:06:11;;;;;;;33.50;18.50;;;;;;;-4.22;100.00;100311.33;1691399;84;21016;-69
2022/01/24 09:08:39;;;;;;;50.67;26.37;;;;;;;-4.16;100.00;100308.02;1695773;84;21555;-70
2022/01/24 09:11:07;;;;;;;45.17;22.33;;;;;;;-4.07;100.00;100305.83;1696996;84;21029;-69
2022/01/24 09:13:34;;;;;;;42.90;18.83;;;;;;;-3.93;100.00;100297.70;1701555;84;21045;-68
2022/01/24 09:16:07;;;;;;;36.10;18.23;;;;;;;-3.85;100.00;100298.20;1671249;85;21060;-70
2022/01/24 09:18:34;;;;;;;38.90;19.77;;;;;;;-3.78;100.00;100304.91;1675766;84;21039;-71
2022/01/24 09:21:02;;;;;;;36.67;22.13;;;;;;;-3.69;100.00;100300.50;1701677;83;21028;-69
2022/01/24 09:23:29;;;;;;;32.67;18.60;;;;;;;-3.61;100.00;100298.83;1667130;85;21014;-71
2022/01/24 09:25:56;;;;;;;48.73;23.33;;;;;;;-3.55;100.00;100302.95;1695204;84;21024;-70
2022/01/24 09:28:23;;;;;;;54.00;25.73;;;;;;;-3.53;100.00;100297.12;1672756;85;21037;-70
2022/01/24 09:30:50;;;;;;;43.90;21.17;;;;;;;-3.49;100.00;100306.16;1698961;84;21103;-70
2022/01/24 09:33:17;;;;;;;43.50;20.33;;;;;;;-3.46;100.00;100309.10;1665460;85;21056;-69
2022/01/24 09:35:45;;;;;;;53.07;27.07;;;;;;;-3.44;100.00;100312.52;1697559;84;21147;-69
2022/01/24 09:38:12;;;;;;;45.07;20.77;;;;;;;-3.44;100.00;100308.08;1695954;84;21086;-69
2022/01/24 09:40:39;;;;;;;55.50;25.17;;;;;;;-3.39;100.00;100324.20;1694412;84;21064;-72
2022/01/24 09:43:07;;;;;;;58.87;27.50;;;;;;;-3.45;100.00;100320.08;1689220;84;21044;-71
2022/01/24 09:45:34;;;;;;;33.77;16.70;;;;;;;-3.49;100.00;100330.39;1648375;85;21056;-73
2022/01/24 09:48:02;;;;;;;42.93;20.70;;;;;;;-3.56;100.00;100328.98;1657353;86;21073;-71
2022/01/24 09:50:30;;;;;;;47.33;22.43;;;;;;;-3.62;100.00;100338.91;1670272;84;21536;-71
2022/01/24 09:52:57;;;;;;;52.70;23.97;;;;;;;-3.64;100.00;100342.58;1685627;84;21548;-70
2022/01/24 09:55:25;;;;;;;94.10;43.13;;;;;;;-3.66;100.00;100338.68;1676355;84;21025;-71
2022/01/24 09:57:52;;;;;;;44.40;20.90;;;;;;;-3.67;100.00;100335.63;1667647;84;21068;-71
2022/01/24 10:00:23;;;;;;;46.53;24.63;;;;;;;-3.63;100.00;100328.41;1670876;84;21075;-72
2022/01/24 10:02:50;;;;;;;50.80;23.97;;;;;;;-3.55;100.00;100335.52;1687589;84;21480;-72
2022/01/24 10:05:25;;;;;;;54.83;26.53;;;;;;;-3.50;100.00;100332.19;1677346;84;21068;-72
2022/01/24 10:07:56;;;;;;;31.63;15.27;;;;;;;-3.49;100.00;100334.36;1670529;84;21017;-72
2022/01/24 10:10:33;;;;;;;59.57;27.47;;;;;;;-3.51;100.00;100337.08;1688151;84;21060;-72
2022/01/24 10:16:24;;;;;;;54.33;27.23;;;;;;;-3.53;100.00;100334.12;1649204;84;21076;-71
2022/01/24 10:21:48;;;;;;;49.00;23.37;;;;;;;-3.61;100.00;100339.80;1575027;89;21104;-73
2022/01/24 10:24:32;;;;;;;71.77;35.25;;;;;;;-3.67;100.00;100351.48;1563965;89;21129;-73
2022/01/24 10:27:17;;;;;;;26.37;13.77;;;;;;;-3.69;100.00;100348.06;1587975;89;21097;-70
2022/01/24 10:30:03;;;;;;;88.37;39.37;;;;;;;-3.73;100.00;100355.76;1596110;89;21063;-72
2022/01/24 10:32:46;;;;;;;49.07;22.87;;;;;;;-3.79;100.00;100352.55;1561268;89;21088;-73
2022/01/24 10:35:40;;;;;;;43.83;20.32;;;;;;;-3.78;100.00;100350.30;1604929;89;21078;-71
2022/01/24 10:41:23;;;;;;;59.77;29.80;;;;;;;-3.73;100.00;100352.27;1584964;89;21088;-70
2022/01/24 10:43:48;;;;;;;58.40;31.12;;;;;;;-3.75;100.00;100361.59;1564695;90;21140;-72
2022/01/24 10:46:24;;;;;;;59.30;29.13;;;;;;;-3.71;100.00;100357.02;1584536;90;21021;-70
2022/01/24 10:49:04;;;;;;;55.40;26.73;;;;;;;-3.67;100.00;100358.58;1564355;90;21079;-72
2022/01/24 10:51:41;;;;;;;63.50;32.10;;;;;;;-3.66;100.00;100350.58;1584842;90;21088;-72
2022/01/24 10:54:08;;;;;;;73.87;38.10;;;;;;;-3.62;100.00;100354.77;1584943;89;21146;-74
2022/01/24 10:56:43;;;;;;;64.67;33.63;;;;;;;-3.60;100.00;100343.28;1606925;89;21105;-73
2022/01/24 10:59:15;;;;;;;44.10;22.63;;;;;;;-3.56;100.00;100348.80;1616050;89;21574;-71
2022/01/24 11:01:50;;;;;;;37.13;19.13;;;;;;;-3.48;100.00;100351.95;1616196;89;21077;-71
2022/01/24 11:04:17;;;;;;;51.50;27.80;;;;;;;-3.39;100.00;100357.26;1576575;91;21119;-71
2022/01/24 11:06:48;;;;;;;52.73;27.37;;;;;;;-3.38;100.00;100342.65;1576367;91;21097;-72
2022/01/24 11:09:27;;;;;;;44.20;24.13;;;;;;;-3.38;100.00;100346.61;1581687;90;21041;-71
2022/01/24 11:12:01;;;;;;;48.70;28.20;;;;;;;-3.36;100.00;100347.86;1590718;90;21102;-72
2022/01/24 11:14:31;;;;;;;26.93;15.27;;;;;;;-3.39;100.00;100346.69;1588970;90;21049;-70
2022/01/24 11:16:59;;;;;;;28.17;14.10;;;;;;;-3.44;100.00;100345.09;1589477;90;21593;-71
2022/01/24 11:19:41;;;;;;;37.83;19.03;;;;;;;-3.49;100.00;100347.14;1593144;90;21091;-71
2022/01/24 11:22:07;;;;;;;35.17;18.13;;;;;;;-3.50;100.00;100352.49;1614555;89;21135;-71
2022/01/24 11:24:43;;;;;;;31.60;15.20;;;;;;;-3.49;100.00;100353.75;1603564;88;21097;-71
2022/01/24 11:27:07;;;;;;;27.48;12.55;;;;;;;-3.47;100.00;100353.64;1611292;89;21134;-70
2022/01/24 11:29:36;;;;;;;35.10;18.17;;;;;;;-3.47;100.00;100357.17;1593306;89;21074;-72
2022/01/24 11:32:22;;;;;;;35.90;16.40;;;;;;;-3.46;100.00;100365.47;1614356;89;21598;-70
2022/01/24 11:34:57;;;;;;;35.37;16.87;;;;;;;-3.49;100.00;100366.97;1592950;89;21074;-70
2022/01/24 11:37:44;;;;;;;32.77;15.70;;;;;;;-3.53;100.00;100365.85;1613575;89;21523;-70
2022/01/24 11:40:19;;;;;;;31.40;15.63;;;;;;;-3.55;100.00;100366.39;1592090;89;21610;-71
2022/01/24 11:42:49;;;;;;;34.23;16.20;;;;;;;-3.57;100.00;100362.97;1612619;89;21161;-71
2022/01/24 11:45:19;;;;;;;32.43;15.63;;;;;;;-3.60;100.00;100368.40;1613191;89;21142;-70
2022/01/24 11:47:47;;;;;;;33.43;16.87;;;;;;;-3.61;100.00;100367.55;1572173;89;21038;-72
2022/01/24 11:50:27;;;;;;;28.77;15.40;;;;;;;-3.62;100.00;100370.64;1592225;89;21046;-72
2022/01/24 11:52:56;;;;;;;33.67;16.73;;;;;;;-3.61;100.00;100370.19;1569647;90;21170;-72
2022/01/24 11:55:31;;;;;;;31.87;16.17;;;;;;;-3.58;100.00;100377.95;1570522;90;21842;-72
2022/01/24 11:58:02;;;;;;;25.37;13.17;;;;;;;-3.56;100.00;100388.02;1587435;89;21533;-72
2022/01/24 12:00:34;;;;;;;28.47;14.03;;;;;;;-3.54;100.00;100387.48;1572202;89;21058;-72
2022/01/24 12:03:03;;;;;;;28.27;14.77;;;;;;;-3.53;100.00;100383.88;1603375;89;21070;-71
2022/01/24 12:05:50;;;;;;;28.03;13.10;;;;;;;-3.50;100.00;100379.78;1612462;88;21161;-71
2022/01/24 12:08:46;;;;;;;33.47;16.47;;;;;;;-3.52;100.00;100388.25;1611812;89;21644;-71
2022/01/24 12:11:32;;;;;;;30.97;14.37;;;;;;;-3.52;100.00;100384.77;1601961;88;21060;-72
2022/01/24 12:14:23;;;;;;;42.03;20.33;;;;;;;-3.48;100.00;100387.64;1613193;88;21641;-71
2022/01/24 12:16:43;;;;;;;53.20;24.87;;;;;;;-3.44;100.00;100388.73;1636236;86;21548;-70
2022/01/24 12:19:10;;;;;;;39.03;18.83;;;;;;;-3.41;100.00;100386.41;1641511;87;21505;-71
2022/01/24 12:21:41;;;;;;;31.83;15.47;;;;;;;-3.38;100.00;100394.66;1641006;87;21108;-70
2022/01/24 12:24:13;;;;;;;63.40;28.60;;;;;;;-3.37;100.00;100394.58;1635653;86;21108;-73
2022/01/24 12:26:45;;;;;;;34.47;15.83;;;;;;;-3.41;100.00;100389.53;1633910;88;22125;-71
2022/01/24 12:29:23;;;;;;;36.30;17.82;;;;;;;-3.40;100.00;100399.16;1591019;87;21056;-71
2022/01/24 12:31:53;;;;;;;22.30;10.57;;;;;;;-3.37;100.00;100405.16;1651739;86;21629;-72
2022/01/24 12:34:38;;;;;;;23.27;10.90;;;;;;;-3.39;100.00;100408.34;1652097;87;21063;-72
2022/01/24 12:37:12;;;;;;;30.87;15.07;;;;;;;-3.45;100.00;100413.94;1651989;87;21240;-72
2022/01/24 12:39:47;;;;;;;19.60;9.40;;;;;;;-3.53;100.00;100410.31;1591603;88;21090;-73
2022/01/24 12:42:29;;;;;;;20.37;9.30;;;;;;;-3.56;100.00;100429.44;1652119;87;21095;-72
2022/01/24 12:47:26;;;;;;;34.87;20.93;;;;;;;-3.69;100.00;100435.28;1651919;87;21032;-72
2022/01/24 12:49:54;;;;;;;32.30;18.40;;;;;;;-3.67;100.00;100433.42;1610407;89;21035;-71
2022/01/24 12:52:24;;;;;;;73.00;41.57;;;;;;;-3.66;100.00;100423.26;1609433;89;21142;-71
2022/01/24 12:54:56;;;;;;;73.23;42.27;;;;;;;-3.67;100.00;100426.82;1610022;89;21164;-72
2022/01/24 12:57:29;;;;;;;71.37;42.20;;;;;;;-3.69;100.00;100432.64;1558614;91;21065;-72
2022/01/24 13:00:03;;;;;;;54.77;34.57;;;;;;;-3.72;100.00;100426.20;1571626;90;21592;-71
2022/01/24 13:02:32;;;;;;;47.17;28.53;;;;;;;-3.71;100.00;100426.58;1582776;91;21058;-71
2022/01/24 13:05:05;;;;;;;59.17;34.60;;;;;;;-3.70;100.00;100423.02;1592351;90;21076;-73